Time;durP1;ratioP1;P1;durP2;ratioP2;P2;SDS_P1;SDS_P2;PMS_P1;PMS_P2;Temp;Humidity;BMP_temperature;BMP_pressure;BME280_temperature;BME280_humidity;BME280_pressure;Samples;Min_cycle;Max_cycle;Signal;HPM_P1;HPM_P2
2023/02/11 00:01:18;;;;;;;18.20;4.72;;;;;;;3.92;55.37;102949.00;4974197;28;20077;-71
2023/02/11 00:03:44;;;;;;;17.17;4.18;;;;;;;3.75;55.77;102958.97;4971268;28;20131;-71
2023/02/11 00:06:10;;;;;;;15.73;5.40;;;;;;;3.80;55.66;102957.34;4966418;28;20270;-70
2023/02/11 00:08:36;;;;;;;18.77;5.22;;;;;;;3.99;55.06;102931.03;4967244;28;20054;-70
2023/02/11 00:11:02;;;;;;;12.90;5.60;;;;;;;3.56;56.28;102916.28;4964883;28;20041;-70
2023/02/11 00:13:28;;;;;;;17.85;5.22;;;;;;;3.76;56.22;102908.97;4962480;28;20047;-69
2023/02/11 00:15:54;;;;;;;16.52;4.93;;;;;;;3.68;56.14;102907.94;4963545;28;20530;-73
2023/02/11 00:18:20;;;;;;;19.17;5.53;;;;;;;4.05;55.62;102906.09;4964470;28;20057;-72
2023/02/11 00:20:45;;;;;;;17.70;5.72;;;;;;;4.08;55.56;102911.34;4965023;28;20038;-69
2023/02/11 00:23:11;;;;;;;19.75;4.85;;;;;;;4.00;55.62;102909.47;4965051;28;20075;-69
2023/02/11 00:25:41;;;;;;;19.35;5.78;;;;;;;4.33;54.56;102918.75;4977860;28;20121;-71
2023/02/11 00:28:07;;;;;;;16.67;5.05;;;;;;;4.39;54.87;102908.50;4965238;28;20535;-72
2023/02/11 00:30:32;;;;;;;19.70;6.40;;;;;;;4.25;55.07;102906.50;4973215;28;20037;-71
2023/02/11 00:32:58;;;;;;;21.17;5.43;;;;;;;4.50;53.80;102905.22;4954001;28;20046;-72
2023/02/11 00:35:24;;;;;;;22.15;6.53;;;;;;;3.80;56.78;102921.13;4963736;28;20740;-71
2023/02/11 00:37:52;;;;;;;15.40;5.25;;;;;;;3.84;55.92;102922.06;4964870;28;20141;-71
2023/02/11 00:40:17;;;;;;;17.67;5.18;;;;;;;4.13;55.47;102920.06;4963046;28;20038;-72
2023/02/11 00:42:43;;;;;;;23.33;5.70;;;;;;;4.04;55.34;102925.06;4967462;28;20053;-75
2023/02/11 00:45:08;;;;;;;23.20;6.05;;;;;;;4.02;55.64;102923.31;4971682;28;20044;-67
2023/02/11 00:47:35;;;;;;;12.70;5.32;;;;;;;4.00;55.87;102911.19;4963587;28;21602;-70
2023/02/11 00:50:04;;;;;;;15.32;5.25;;;;;;;3.95;56.12;102920.56;4968275;28;20038;-74
2023/02/11 00:52:30;;;;;;;16.23;4.85;;;;;;;4.05;56.11;102921.63;4963334;28;20050;-69
2023/02/11 00:54:56;;;;;;;16.42;5.90;;;;;;;4.07;56.02;102925.13;4964988;28;20038;-69
2023/02/11 00:57:21;;;;;;;21.75;6.80;;;;;;;4.31;55.33;102920.41;4980715;28;20050;-74
2023/02/11 00:59:49;;;;;;;26.63;5.03;;;;;;;4.30;55.48;102921.28;4963320;28;20057;-72
2023/02/11 01:02:15;;;;;;;14.20;5.28;;;;;;;3.92;56.06;102911.03;4962532;28;20043;-72
2023/02/11 01:04:42;;;;;;;17.02;5.43;;;;;;;3.78;56.60;102908.19;4968614;28;20101;-72
2023/02/11 01:07:07;;;;;;;16.17;5.72;;;;;;;3.70;57.54;102914.03;4953715;28;20058;-72
2023/02/11 01:09:33;;;;;;;13.27;5.88;;;;;;;4.29;55.84;102905.72;4970780;28;20042;-71
2023/02/11 01:11:58;;;;;;;22.80;5.13;;;;;;;4.01;56.05;102911.22;4976654;28;20638;-77
2023/02/11 01:14:24;;;;;;;18.05;4.88;;;;;;;4.07;56.23;102918.22;4983478;28;20026;-76
2023/02/11 01:16:53;;;;;;;14.40;5.35;;;;;;;4.05;56.55;102921.63;4982357;28;20053;-71
2023/02/11 01:19:22;;;;;;;21.90;6.38;;;;;;;3.97;56.70;102912.00;4961470;28;20073;-72
2023/02/11 01:21:47;;;;;;;23.58;6.13;;;;;;;4.43;55.39;102904.22;4966290;28;20035;-69
2023/02/11 01:24:13;;;;;;;17.77;4.90;;;;;;;4.17;56.54;102907.22;4999555;28;20039;-70
2023/02/11 01:26:38;;;;;;;18.73;5.32;;;;;;;3.97;56.86;102901.66;4966818;28;20038;-70
2023/02/11 01:29:04;;;;;;;20.42;4.88;;;;;;;4.13;56.84;102908.00;4977154;28;20396;-69
2023/02/11 01:31:30;;;;;;;19.17;6.10;;;;;;;4.13;56.40;102904.53;4967441;28;20034;-74
2023/02/11 01:33:59;;;;;;;27.30;5.78;;;;;;;3.90;56.95;102911.84;4961713;28;20073;-72
2023/02/11 01:36:25;;;;;;;12.40;5.28;;;;;;;4.17;56.82;102896.00;4973206;28;20039;-72
2023/02/11 01:38:51;;;;;;;20.48;5.38;;;;;;;4.67;55.18;102888.25;4999014;28;20470;-73
2023/02/11 01:41:19;;;;;;;25.60;5.95;;;;;;;3.29;58.76;102882.94;4976747;28;20034;-73
2023/02/11 01:43:49;;;;;;;13.90;5.22;;;;;;;4.54;55.73;102889.78;4967748;28;20035;-72
2023/02/11 01:46:36;;;;;;;20.05;5.97;;;;;;;4.23;56.56;102885.78;4977124;28;20361;-73
2023/02/11 01:49:11;;;;;;;18.67;6.03;;;;;;;3.90;57.30;102894.63;4974105;28;20084;-72
2023/02/11 01:51:45;;;;;;;15.98;5.97;;;;;;;3.99;57.55;102893.94;4981191;28;20038;-73
2023/02/11 01:57:21;;;;;;;12.80;4.40;;;;;;;3.85;57.71;102901.41;4984966;28;20031;-73
2023/02/11 02:00:05;;;;;;;19.80;5.43;;;;;;;4.74;55.20;102897.00;4985955;28;20052;-73
2023/02/11 02:02:49;;;;;;;20.25;5.82;;;;;;;4.57;56.28;102891.56;4966622;28;20134;-73
2023/02/11 02:05:32;;;;;;;21.33;6.60;;;;;;;4.38;56.45;102898.09;4970078;28;20046;-71
2023/02/11 02:08:03;;;;;;;13.90;6.13;;;;;;;4.42;56.67;102895.59;4967878;28;20130;-70
2023/02/11 02:10:30;;;;;;;22.25;6.07;;;;;;;4.19;57.10;102889.16;4965382;28;20034;-72
2023/02/11 02:12:56;;;;;;;20.63;6.32;;;;;;;4.66;55.80;102883.06;4982996;28;20404;-72
2023/02/11 02:15:27;;;;;;;29.80;6.85;;;;;;;4.11;57.52;102875.16;4973535;28;20042;-71
2023/02/11 02:17:59;;;;;;;23.83;5.63;;;;;;;4.10;57.44;102873.44;4966869;28;20050;-71
2023/02/11 02:20:45;;;;;;;21.80;6.15;;;;;;;4.67;55.86;102870.13;4966227;28;20066;-71
2023/02/11 02:23:29;;;;;;;18.58;5.90;;;;;;;3.94;58.31;102873.13;4966897;28;20588;-71
2023/02/11 02:26:26;;;;;;;14.88;6.63;;;;;;;3.99;57.59;102860.28;4977104;28;20035;-71
2023/02/11 02:29:12;;;;;;;21.27;6.28;;;;;;;4.01;58.26;102872.41;4946796;28;20062;-71
2023/02/11 02:31:53;;;;;;;21.23;6.65;;;;;;;4.21;57.65;102877.97;4963611;28;20397;-72
2023/02/11 02:34:29;;;;;;;19.05;7.03;;;;;;;4.68;56.33;102876.22;4965820;28;20059;-69
2023/02/11 02:37:10;;;;;;;17.90;6.90;;;;;;;4.61;56.02;102877.81;4975598;28;20042;-69
2023/02/11 02:39:36;;;;;;;25.35;6.55;;;;;;;4.62;56.55;102864.88;4972946;28;20042;-69
2023/02/11 02:42:03;;;;;;;25.20;7.25;;;;;;;4.73;56.24;102857.28;4969410;28;20038;-70
2023/02/11 02:44:32;;;;;;;22.63;6.40;;;;;;;4.56;57.13;102858.72;4966017;28;20479;-69
2023/02/11 02:46:58;;;;;;;32.88;7.10;;;;;;;4.77;56.29;102859.09;4968355;28;20037;-69
2023/02/11 02:49:23;;;;;;;21.65;6.57;;;;;;;5.04;55.42;102863.84;4966257;28;20030;-69
2023/02/11 02:52:08;;;;;;;19.42;7.28;;;;;;;4.96;55.65;102864.56;4966474;28;20510;-69
2023/02/11 02:54:52;;;;;;;25.38;7.70;;;;;;;4.51;57.00;102860.38;4972572;28;20030;-71
2023/02/11 02:57:20;;;;;;;20.48;6.85;;;;;;;4.45;57.87;102857.66;4962347;28;20048;-70
2023/02/11 03:00:07;;;;;;;21.17;7.38;;;;;;;5.08;55.84;102849.22;4974814;28;20272;-71
2023/02/11 03:02:51;;;;;;;20.17;7.60;;;;;;;5.03;55.83;102850.84;4963479;28;20117;-70
2023/02/11 03:05:41;;;;;;;17.65;6.65;;;;;;;5.05;55.51;102849.16;4967730;28;20082;-70
2023/02/11 03:08:26;;;;;;;25.85;7.22;;;;;;;4.39;57.53;102854.13;4965972;28;20051;-69
2023/02/11 03:10:54;;;;;;;20.58;7.40;;;;;;;4.19;58.23;102842.56;4963194;28;20049;-68
2023/02/11 03:13:23;;;;;;;18.17;6.93;;;;;;;4.84;56.38;102842.78;4971316;28;20406;-69
2023/02/11 03:15:54;;;;;;;30.70;8.55;;;;;;;4.65;56.82;102830.38;4974589;28;20559;-69
2023/02/11 03:18:23;;;;;;;17.05;6.75;;;;;;;4.56;57.53;102838.88;4954266;28;20043;-70
2023/02/11 03:20:52;;;;;;;21.77;7.93;;;;;;;4.78;56.99;102842.69;4962773;28;20558;-69
2023/02/11 03:23:22;;;;;;;26.33;8.10;;;;;;;4.38;58.05;102839.41;4945667;28;20054;-69
2023/02/11 03:26:01;;;;;;;29.45;8.13;;;;;;;4.34;58.56;102837.66;4949196;28;20407;-68
2023/02/11 03:28:37;;;;;;;26.77;8.52;;;;;;;4.78;57.09;102834.91;4945826;28;20051;-68
2023/02/11 03:31:13;;;;;;;23.17;7.60;;;;;;;4.97;56.84;102837.84;4942581;28;20034;-69
2023/02/11 03:34:22;;;;;;;21.50;7.50;;;;;;;4.68;57.33;102837.34;4958454;28;20472;-69
2023/02/11 03:37:15;;;;;;;19.98;6.55;;;;;;;5.15;55.85;102842.41;4957761;28;20459;-72
2023/02/11 03:39:54;;;;;;;22.58;7.30;;;;;;;5.07;56.29;102831.06;4967303;28;20956;-71
2023/02/11 03:42:24;;;;;;;29.20;7.75;;;;;;;4.81;56.51;102840.16;4962660;28;20044;-71
2023/02/11 03:44:56;;;;;;;16.05;7.50;;;;;;;4.32;58.68;102836.75;4959415;28;20042;-71
2023/02/11 03:47:25;;;;;;;26.40;8.90;;;;;;;4.80;56.90;102832.34;4979850;28;20059;-70
2023/02/11 03:49:54;;;;;;;17.60;7.78;;;;;;;4.58;57.97;102831.13;4970029;28;20031;-70
2023/02/11 03:52:22;;;;;;;25.08;6.78;;;;;;;4.78;57.59;102821.09;4963385;28;20038;-71
2023/02/11 03:54:52;;;;;;;22.80;8.23;;;;;;;4.33;58.86;102819.50;4966191;28;20038;-70
2023/02/11 03:57:18;;;;;;;26.00;7.93;;;;;;;4.01;59.92;102823.25;4962878;28;20089;-70
2023/02/11 03:59:54;;;;;;;26.77;8.65;;;;;;;4.86;57.85;102831.59;4967029;28;20066;-71
2023/02/11 04:02:24;;;;;;;22.98;7.40;;;;;;;4.55;58.39;102831.94;4962504;28;20042;-71
2023/02/11 04:04:49;;;;;;;21.90;8.55;;;;;;;4.58;58.40;102832.00;4967514;28;20039;-72
2023/02/11 04:07:15;;;;;;;22.42;7.63;;;;;;;4.53;58.08;102835.38;4963287;28;20050;-71
2023/02/11 04:09:40;;;;;;;23.48;8.32;;;;;;;4.48;58.81;102834.44;4971557;28;20066;-72
2023/02/11 04:12:06;;;;;;;21.83;8.23;;;;;;;4.88;57.44;102833.38;4964332;28;20104;-70
2023/02/11 04:14:32;;;;;;;27.10;7.63;;;;;;;4.87;57.81;102828.13;4965430;28;20073;-70
2023/02/11 04:16:57;;;;;;;22.55;7.60;;;;;;;4.98;57.13;102832.66;4964567;28;20058;-70
2023/02/11 04:19:23;;;;;;;26.08;8.00;;;;;;;4.57;58.23;102850.13;4964149;28;20042;-70
2023/02/11 04:21:48;;;;;;;24.02;8.43;;;;;;;4.82;57.59;102847.06;4963622;28;20042;-71
2023/02/11 04:24:13;;;;;;;30.40;8.55;;;;;;;5.11;56.69;102848.41;4967881;28;20709;-70
2023/02/11 04:26:39;;;;;;;20.98;8.32;;;;;;;4.63;58.24;102856.28;4962862;28;20036;-71
2023/02/11 04:29:04;;;;;;;16.85;8.30;;;;;;;4.24;59.20;102843.50;4966162;28;20053;-69
2023/02/11 04:31:30;;;;;;;24.60;8.02;;;;;;;4.61;58.14;102844.16;4980761;28;20037;-71
2023/02/11 04:33:55;;;;;;;27.90;7.70;;;;;;;4.38;59.33;102833.38;4963650;28;20065;-71
2023/02/11 04:36:24;;;;;;;23.48;8.20;;;;;;;4.22;59.40;102842.59;4965545;28;20043;-71
2023/02/11 04:38:49;;;;;;;30.27;8.60;;;;;;;4.63;58.16;102829.47;4964712;28;20046;-75
2023/02/11 04:41:18;;;;;;;22.25;7.20;;;;;;;4.39;59.15;102830.81;4970129;28;20041;-74
2023/02/11 04:43:43;;;;;;;30.60;9.75;;;;;;;4.48;59.03;102837.03;4996377;28;20059;-75
2023/02/11 04:46:09;;;;;;;28.15;7.97;;;;;;;4.11;59.80;102826.00;4972904;28;20073;-75
2023/02/11 04:48:34;;;;;;;29.25;9.70;;;;;;;4.74;57.92;102833.09;4961735;28;22149;-75
2023/02/11 04:51:01;;;;;;;23.77;8.68;;;;;;;4.67;58.22;102823.50;4967032;28;20062;-75
2023/02/11 04:53:26;;;;;;;24.23;8.35;;;;;;;4.66;58.61;102819.19;4961482;28;20043;-75
2023/02/11 04:55:52;;;;;;;22.92;9.02;;;;;;;4.98;57.28;102821.41;4967858;28;20041;-73
2023/02/11 04:58:18;;;;;;;23.08;8.48;;;;;;;4.64;58.34;102824.31;4964602;28;20050;-73
2023/02/11 05:00:44;;;;;;;33.67;8.98;;;;;;;4.23;59.92;102823.66;4969992;28;20082;-74
2023/02/11 05:03:09;;;;;;;29.42;9.07;;;;;;;4.64;58.34;102816.56;4965230;28;20049;-72
2023/02/11 05:05:38;;;;;;;30.35;9.43;;;;;;;4.84;57.57;102829.81;4971170;28;20044;-73
2023/02/11 05:08:04;;;;;;;25.35;8.68;;;;;;;5.00;57.36;102835.28;4969374;28;20542;-72
2023/02/11 05:10:29;;;;;;;32.33;9.30;;;;;;;4.81;58.10;102842.75;4968791;28;20042;-72
2023/02/11 05:12:54;;;;;;;21.95;9.13;;;;;;;4.35;58.94;102844.56;4965231;28;20061;-72
2023/02/11 05:15:20;;;;;;;21.98;8.57;;;;;;;4.79;57.98;102849.63;4963438;28;20792;-73
2023/02/11 05:17:45;;;;;;;27.50;9.07;;;;;;;5.04;57.16;102858.66;4955662;28;20178;-72
2023/02/11 05:20:11;;;;;;;36.35;9.73;;;;;;;4.34;59.20;102850.59;4966061;28;20031;-71
2023/02/11 05:22:36;;;;;;;30.90;9.18;;;;;;;4.57;58.79;102866.53;4960537;28;20050;-71
2023/02/11 05:25:02;;;;;;;26.42;9.50;;;;;;;4.73;58.33;102844.34;4966352;28;20046;-70
2023/02/11 05:27:27;;;;;;;30.40;9.93;;;;;;;4.42;58.83;102846.41;4960749;28;20054;-69
2023/02/11 05:29:53;;;;;;;24.80;9.50;;;;;;;4.53;58.56;102848.31;4964990;28;20063;-70
2023/02/11 05:32:18;;;;;;;33.15;10.32;;;;;;;4.35;59.32;102846.28;4967556;28;20195;-69
2023/02/11 05:34:44;;;;;;;30.52;10.10;;;;;;;4.50;59.16;102843.97;4962412;28;20726;-70
2023/02/11 05:37:09;;;;;;;26.05;7.97;;;;;;;4.39;59.11;102840.31;4943677;28;20503;-71
2023/02/11 05:39:34;;;;;;;29.27;9.80;;;;;;;4.03;59.61;102825.88;4976302;28;20539;-72
2023/02/11 05:42:00;;;;;;;28.42;10.32;;;;;;;4.55;58.83;102831.94;4970435;28;20031;-72
2023/02/11 05:44:25;;;;;;;23.25;9.35;;;;;;;4.70;58.30;102835.63;4964458;28;20039;-72
2023/02/11 05:46:51;;;;;;;31.35;9.18;;;;;;;4.97;57.33;102841.28;4972976;28;20042;-73
2023/02/11 05:49:17;;;;;;;26.98;10.23;;;;;;;4.83;58.05;102832.38;4976483;28;20644;-73
2023/02/11 05:51:42;;;;;;;24.83;9.13;;;;;;;4.46;58.69;102838.72;4964442;28;20030;-73
2023/02/11 05:54:08;;;;;;;33.00;10.63;;;;;;;4.59;58.58;102825.97;4964751;28;20712;-73
2023/02/11 05:56:33;;;;;;;28.17;9.82;;;;;;;4.99;57.37;102828.38;4968481;28;20051;-73
2023/02/11 05:58:59;;;;;;;20.23;8.23;;;;;;;4.93;57.58;102823.94;4966226;28;20046;-73
2023/02/11 06:01:25;;;;;;;24.48;8.50;;;;;;;4.13;59.84;102821.72;4968339;28;20030;-74
2023/02/11 06:03:50;;;;;;;34.97;9.70;;;;;;;4.66;58.61;102816.59;4952706;28;20050;-73
2023/02/11 06:06:16;;;;;;;31.63;9.20;;;;;;;4.94;57.55;102828.25;4932342;28;20035;-73
2023/02/11 06:08:42;;;;;;;21.13;8.63;;;;;;;4.57;58.87;102830.25;4966547;28;20205;-72
2023/02/11 06:11:08;;;;;;;22.95;8.57;;;;;;;4.66;58.36;102829.53;4968655;28;20471;-73
2023/02/11 06:13:34;;;;;;;37.38;10.65;;;;;;;4.42;59.21;102823.09;4980471;28;20491;-73
2023/02/11 06:16:01;;;;;;;25.25;8.65;;;;;;;4.59;58.93;102836.34;4974521;28;20100;-73
2023/02/11 06:18:28;;;;;;;32.50;8.55;;;;;;;4.55;58.60;102825.91;4965001;28;20047;-74
2023/02/11 06:20:54;;;;;;;24.15;8.40;;;;;;;5.18;57.00;102825.16;4987893;28;20579;-73
2023/02/11 06:23:19;;;;;;;19.48;7.10;;;;;;;4.81;57.65;102837.56;4982924;28;20068;-73
2023/02/11 06:25:45;;;;;;;27.17;7.85;;;;;;;4.78;58.09;102840.09;4967654;28;20089;-72
2023/02/11 06:28:11;;;;;;;25.00;8.40;;;;;;;4.51;59.06;102837.06;4999105;28;20541;-71
2023/02/11 06:30:37;;;;;;;33.45;9.05;;;;;;;4.98;57.63;102832.66;4979835;28;20049;-73
2023/02/11 06:33:03;;;;;;;26.75;8.20;;;;;;;4.79;57.74;102844.44;4972382;28;20041;-72
2023/02/11 06:35:28;;;;;;;20.25;7.22;;;;;;;4.40;59.46;102842.91;4973380;28;20542;-72
2023/02/11 06:37:54;;;;;;;26.58;8.57;;;;;;;4.57;58.56;102839.75;4971533;28;20093;-70
2023/02/11 06:40:19;;;;;;;28.10;8.55;;;;;;;4.93;57.60;102836.03;4960645;28;20022;-72
2023/02/11 06:42:45;;;;;;;29.90;8.23;;;;;;;4.76;58.25;102844.38;4975007;28;20073;-73
2023/02/11 06:45:12;;;;;;;31.45;8.98;;;;;;;4.80;57.98;102842.72;4968259;28;20038;-73
2023/02/11 06:47:39;;;;;;;25.48;7.45;;;;;;;4.99;57.30;102838.72;4970675;28;20515;-74
2023/02/11 06:50:06;;;;;;;22.52;7.80;;;;;;;4.97;57.03;102833.50;4971518;28;20030;-72
2023/02/11 06:52:32;;;;;;;26.02;7.55;;;;;;;4.83;57.73;102822.03;4991459;28;20125;-72
2023/02/11 06:54:58;;;;;;;33.80;9.43;;;;;;;4.76;57.71;102830.56;4946780;28;20035;-73
2023/02/11 06:57:24;;;;;;;28.38;7.32;;;;;;;4.72;57.81;102826.16;4949560;28;20047;-73
2023/02/11 06:59:50;;;;;;;25.20;8.77;;;;;;;4.98;57.02;102831.78;4948466;28;20031;-72
2023/02/11 07:02:15;;;;;;;21.02;6.57;;;;;;;4.54;57.97;102835.41;4947209;28;20051;-71
2023/02/11 07:04:41;;;;;;;20.35;7.38;;;;;;;5.18;56.27;102848.50;4954106;28;20042;-75
2023/02/11 07:07:07;;;;;;;26.67;7.30;;;;;;;4.90;57.53;102839.47;4946524;28;20061;-72
2023/02/11 07:09:32;;;;;;;31.15;7.47;;;;;;;4.79;57.40;102839.25;4959366;28;20051;-72
2023/02/11 07:11:58;;;;;;;25.30;7.18;;;;;;;5.10;57.04;102844.94;4948122;28;20081;-72
2023/02/11 07:14:24;;;;;;;35.08;8.02;;;;;;;4.51;58.60;102837.06;4947245;28;20078;-71
2023/02/11 07:16:49;;;;;;;27.17;7.05;;;;;;;4.39;58.27;102843.78;4950614;28;20089;-71
2023/02/11 07:19:15;;;;;;;21.30;6.53;;;;;;;4.87;57.93;102848.84;4953937;28;20039;-71
2023/02/11 07:21:40;;;;;;;22.65;6.65;;;;;;;5.09;57.11;102847.50;4945744;28;20106;-71
2023/02/11 07:24:07;;;;;;;23.33;7.15;;;;;;;5.31;56.58;102846.09;4943639;28;20558;-72
2023/02/11 07:26:33;;;;;;;21.75;5.50;;;;;;;4.69;58.07;102841.66;4952158;28;20068;-72
2023/02/11 07:28:59;;;;;;;12.93;4.30;;;;;;;5.28;56.53;102861.56;4947290;28;20058;-73
2023/02/11 07:31:27;;;;;;;19.30;5.10;;;;;;;5.64;55.33;102862.09;4946454;28;20031;-72
2023/02/11 07:33:54;;;;;;;24.17;7.68;;;;;;;5.52;55.80;102859.31;4940848;28;20102;-71
2023/02/11 07:36:20;;;;;;;16.23;4.80;;;;;;;5.30;56.16;102865.06;4945810;28;20031;-72
2023/02/11 07:38:46;;;;;;;14.85;4.60;;;;;;;5.03;57.21;102866.41;4962558;28;20515;-72
2023/02/11 07:41:18;;;;;;;17.05;4.88;;;;;;;5.30;56.86;102876.34;4947256;28;20101;-71
2023/02/11 07:43:43;;;;;;;;;;;;;;;5.37;56.27;102877.25;4937128;28;20053;-72
2023/02/11 07:46:15;;;;;;;19.65;4.85;;;;;;;5.35;56.50;102881.59;4961877;28;19918;-72
2023/02/11 07:48:40;;;;;;;28.10;4.50;;;;;;;5.47;56.36;102892.09;4945335;28;20550;-72
2023/02/11 07:51:14;;;;;;;19.40;5.47;;;;;;;5.40;56.46;102890.28;4953574;28;20042;-72
2023/02/11 07:53:43;;;;;;;15.95;5.25;;;;;;;5.44;56.16;102899.88;4945775;28;20077;-72
2023/02/11 07:56:10;;;;;;;18.38;5.15;;;;;;;5.46;56.57;102892.97;4952079;28;20436;-72
2023/02/11 07:58:36;;;;;;;22.05;4.85;;;;;;;5.93;54.78;102895.31;4943383;28;20053;-71
2023/02/11 08:01:04;;;;;;;16.92;6.18;;;;;;;5.97;54.46;102899.69;4949905;28;20034;-72
2023/02/11 08:03:30;;;;;;;23.17;5.47;;;;;;;6.02;54.68;102903.19;4959427;28;20053;-72
2023/02/11 08:05:57;;;;;;;23.60;4.70;;;;;;;6.08;54.46;102894.59;4946644;28;20038;-72
2023/02/11 08:08:26;;;;;;;20.02;4.97;;;;;;;5.74;54.96;102901.97;4944120;28;20317;-72
2023/02/11 08:10:51;;;;;;;21.92;4.35;;;;;;;5.02;57.33;102898.38;4937262;28;20039;-72
2023/02/11 08:13:17;;;;;;;17.73;4.68;;;;;;;5.41;56.41;102899.78;4948262;28;20047;-72
2023/02/11 08:15:42;;;;;;;19.17;4.32;;;;;;;5.72;55.37;102908.88;4949230;28;20507;-72
2023/02/11 08:18:07;;;;;;;15.20;3.95;;;;;;;5.72;55.33;102905.41;4958275;28;20054;-72
2023/02/11 08:20:33;;;;;;;15.95;5.55;;;;;;;6.00;54.58;102917.88;4955409;28;20675;-72
2023/02/11 08:22:58;;;;;;;13.80;4.07;;;;;;;5.74;55.83;102927.91;4950619;28;20065;-74
2023/02/11 08:25:24;;;;;;;22.88;4.13;;;;;;;5.88;55.24;102930.69;4945593;28;20065;-71
2023/02/11 08:27:49;;;;;;;20.42;4.20;;;;;;;5.66;55.80;102933.03;4943778;28;20046;-71
2023/02/11 08:30:15;;;;;;;21.48;4.38;;;;;;;6.06;54.55;102928.34;4938434;28;20035;-72
2023/02/11 08:32:40;;;;;;;16.92;3.30;;;;;;;6.14;54.43;102933.59;4920712;28;20073;-72
2023/02/11 08:35:06;;;;;;;23.00;3.17;;;;;;;6.03;54.74;102933.47;4953166;28;20522;-71
2023/02/11 08:37:32;;;;;;;16.58;3.47;;;;;;;5.97;54.70;102941.22;4953771;28;20082;-72
2023/02/11 08:39:58;;;;;;;19.40;4.13;;;;;;;6.13;54.58;102938.78;4954753;28;20035;-72
2023/02/11 08:42:23;;;;;;;19.95;3.53;;;;;;;6.35;53.92;102938.22;4952804;28;20156;-71
2023/02/11 08:44:49;;;;;;;15.68;2.53;;;;;;;6.34;53.96;102946.84;4952971;28;20043;-72
2023/02/11 08:47:14;;;;;;;13.85;3.67;;;;;;;6.18;54.51;102950.09;4944341;28;20039;-71
2023/02/11 08:49:41;;;;;;;14.35;4.55;;;;;;;5.94;54.88;102958.47;4943355;28;20073;-71
2023/02/11 08:52:07;;;;;;;16.90;3.80;;;;;;;5.49;55.85;102960.44;4961326;28;20038;-71
2023/02/11 08:54:32;;;;;;;10.15;2.22;;;;;;;5.83;55.59;102960.91;4945910;28;20082;-72
2023/02/11 08:57:00;;;;;;;16.80;3.67;;;;;;;6.00;54.85;102962.00;4953704;28;20038;-72
2023/02/11 08:59:26;;;;;;;8.35;2.67;;;;;;;6.13;54.76;102967.34;4944608;28;20066;-71
2023/02/11 09:01:52;;;;;;;22.65;3.53;;;;;;;6.55;53.32;102972.19;4944229;28;20043;-72
2023/02/11 09:04:18;;;;;;;9.02;3.05;;;;;;;6.12;54.44;102976.00;4931629;28;20041;-71
2023/02/11 09:06:43;;;;;;;9.82;2.15;;;;;;;6.53;53.25;102970.41;4932658;28;20098;-72
2023/02/11 09:09:13;;;;;;;24.88;3.47;;;;;;;6.23;54.35;102977.00;4942534;28;20047;-72
2023/02/11 09:11:41;;;;;;;21.92;2.67;;;;;;;6.18;54.26;102981.25;4944052;28;20428;-71
2023/02/11 09:14:13;;;;;;;12.13;2.85;;;;;;;6.52;53.66;102985.16;4944212;28;20788;-72
2023/02/11 09:16:39;;;;;;;13.65;2.35;;;;;;;6.30;53.81;102984.03;4943868;28;20491;-72
2023/02/11 09:19:04;;;;;;;13.68;2.10;;;;;;;6.25;54.07;102990.88;4947505;28;20043;-72
2023/02/11 09:21:30;;;;;;;16.48;2.90;;;;;;;6.43;53.72;103001.50;4944128;28;20026;-72
2023/02/11 09:23:56;;;;;;;11.55;2.17;;;;;;;6.71;53.05;103009.59;4937995;28;20046;-72
2023/02/11 09:26:24;;;;;;;15.65;3.40;;;;;;;6.54;53.34;103008.56;4943314;28;20231;-72
2023/02/11 09:28:50;;;;;;;22.33;2.45;;;;;;;6.42;53.98;103014.50;4942140;28;20640;-72
2023/02/11 09:31:21;;;;;;;10.15;2.30;;;;;;;6.37;53.77;103017.00;4952048;28;20153;-72
2023/02/11 09:33:49;;;;;;;18.48;2.33;;;;;;;6.70;53.15;103032.09;4951058;28;20054;-71
2023/02/11 09:36:18;;;;;;;16.45;2.15;;;;;;;6.62;53.48;103040.66;4951926;28;20041;-71
2023/02/11 09:38:44;;;;;;;13.27;1.73;;;;;;;6.83;52.66;103040.91;5000278;28;20046;-72
2023/02/11 09:41:22;;;;;;;12.27;1.33;;;;;;;6.68;53.59;103028.63;4971371;28;20062;-72
2023/02/11 09:43:55;;;;;;;16.65;2.05;;;;;;;6.72;52.93;103037.31;4969614;28;20046;-71
2023/02/11 09:46:23;;;;;;;13.88;2.13;;;;;;;6.84;53.10;103029.69;4981240;28;20069;-71
2023/02/11 09:48:53;;;;;;;14.30;1.95;;;;;;;6.51;53.69;103024.97;4975505;28;20050;-72
2023/02/11 09:51:43;;;;;;;16.08;2.40;;;;;;;6.60;53.50;103019.03;4967775;28;20146;-71
2023/02/11 09:54:35;;;;;;;15.65;2.30;;;;;;;7.03;52.21;103024.66;4968038;28;20092;-72
2023/02/11 09:57:04;;;;;;;12.18;1.30;;;;;;;6.52;53.35;103031.03;4959130;28;20030;-72
2023/02/11 09:59:30;;;;;;;9.45;2.30;;;;;;;6.82;52.88;103031.38;4950825;28;20026;-71
2023/02/11 10:01:58;;;;;;;27.75;1.67;;;;;;;7.20;52.35;103030.88;4958635;28;20045;-72
2023/02/11 10:04:47;;;;;;;12.88;2.47;;;;;;;6.84;52.87;103040.06;4952880;28;20551;-72
2023/02/11 10:07:35;;;;;;;15.40;1.70;;;;;;;7.18;52.10;103042.13;4954408;28;20134;-72
2023/02/11 10:10:43;;;;;;;17.80;2.40;;;;;;;7.16;52.25;103036.03;4976027;28;20510;-72
2023/02/11 10:13:29;;;;;;;10.75;1.75;;;;;;;7.22;52.00;103036.06;4967283;28;20656;-72
2023/02/11 10:16:14;;;;;;;15.25;2.03;;;;;;;6.89;52.56;103046.19;4966869;28;20034;-72
2023/02/11 10:18:40;;;;;;;12.13;2.03;;;;;;;7.28;51.66;103047.41;4956514;28;20065;-71
2023/02/11 10:21:37;;;;;;;7.00;1.17;;;;;;;6.99;51.94;103060.13;4968821;28;20038;-72
2023/02/11 10:24:09;;;;;;;19.65;1.65;;;;;;;6.77;52.93;103059.03;4969641;28;20057;-72
2023/02/11 10:26:37;;;;;;;9.65;2.38;;;;;;;6.81;52.83;103072.94;4965530;28;20626;-72
2023/02/11 10:29:32;;;;;;;29.77;2.85;;;;;;;7.10;51.90;103083.66;4972428;28;20053;-72
2023/02/11 10:32:00;;;;;;;12.60;2.00;;;;;;;7.76;50.37;103075.56;4965695;28;20046;-72
2023/02/11 10:34:26;;;;;;;11.27;1.42;;;;;;;7.52;51.23;103075.34;4980408;28;20446;-72
2023/02/11 10:36:51;;;;;;;12.25;1.50;;;;;;;7.41;51.23;103073.53;4975255;28;20035;-72
2023/02/11 10:39:22;;;;;;;17.80;2.60;;;;;;;7.52;50.82;103071.88;4968576;28;20043;-72
2023/02/11 10:42:04;;;;;;;16.80;1.33;;;;;;;7.22;52.11;103078.59;4972421;28;20041;-71
2023/02/11 10:44:33;;;;;;;12.60;2.28;;;;;;;7.17;52.01;103069.84;4970038;28;20029;-72
2023/02/11 10:47:04;;;;;;;16.33;1.83;;;;;;;7.59;51.29;103075.44;4960870;28;20110;-72
2023/02/11 10:49:37;;;;;;;14.15;1.83;;;;;;;7.78;50.95;103077.31;4966499;28;20031;-72
2023/02/11 10:52:24;;;;;;;12.85;1.20;;;;;;;7.66;51.42;103079.81;4973101;28;20046;-72
2023/02/11 10:55:16;;;;;;;10.45;1.45;;;;;;;7.60;51.24;103079.78;4967660;28;20173;-72
2023/02/11 10:57:59;;;;;;;11.02;1.52;;;;;;;7.82;50.81;103079.06;4968329;28;20046;-72
2023/02/11 11:00:36;;;;;;;9.60;1.48;;;;;;;8.06;50.11;103090.50;4967871;28;20065;-72
2023/02/11 11:03:19;;;;;;;11.80;1.35;;;;;;;8.32;50.17;103082.84;5000884;28;20113;-72
2023/02/11 11:05:48;;;;;;;24.52;2.47;;;;;;;7.88;50.78;103075.66;4968095;28;20027;-72
2023/02/11 11:08:15;;;;;;;8.27;1.23;;;;;;;8.17;50.12;103087.97;4966494;28;20093;-72
2023/02/11 11:10:44;;;;;;;22.58;2.85;;;;;;;7.73;50.87;103098.13;4970031;28;20105;-72
2023/02/11 11:13:22;;;;;;;14.00;1.17;;;;;;;7.94;50.64;103106.94;4980593;28;20125;-72
2023/02/11 11:16:15;;;;;;;13.50;1.45;;;;;;;7.78;50.76;103100.75;4968113;28;20352;-72
2023/02/11 11:18:43;;;;;;;11.82;1.63;;;;;;;7.94;50.68;103114.75;4966567;28;20659;-72
2023/02/11 11:21:20;;;;;;;15.35;2.05;;;;;;;7.90;50.62;103118.19;4969428;28;20496;-72
2023/02/11 11:23:55;;;;;;;19.40;3.20;;;;;;;7.79;50.55;103106.81;4946919;28;20555;-72
2023/02/11 11:26:22;;;;;;;9.85;2.15;;;;;;;7.36;51.97;103116.84;4964324;28;20767;-71
2023/02/11 11:28:55;;;;;;;10.10;1.45;;;;;;;7.31;52.28;103109.88;4969616;28;20042;-72
2023/02/11 11:31:25;;;;;;;12.00;2.42;;;;;;;7.74;51.08;103104.19;4964355;28;20096;-72
2023/02/11 11:33:54;;;;;;;11.57;1.48;;;;;;;7.12;52.94;103102.75;4965173;28;20049;-72
2023/02/11 11:36:23;;;;;;;9.60;1.60;;;;;;;7.06;52.88;103102.66;4972357;28;20680;-72
2023/02/11 11:38:56;;;;;;;16.92;2.25;;;;;;;7.70;51.67;103098.09;4965115;28;20050;-71
2023/02/11 11:41:31;;;;;;;19.02;1.52;;;;;;;7.30;52.62;103110.72;4981334;28;20042;-72